首页
METAR-TAF:

METAR-TAF

机场 :

杜尚别机场

杜尚别, 塔吉克斯坦

纬度: 38-33N, 经度: 068-47E, 海拔: 803米

当前天气观测

该预报发布于12分钟前的14:30 UTC
风速4节,风向多变
温度 14°C
湿度 51%
气压 1019 hPa
能見度: 7000

METAR: UTDD 231430Z VRB02MPS 7000 NSC 14/04 Q1019 R09/CLRD// NOSIG RMK QFE696/0928

时间: 19:42 (14:42 UTC)

预报

该预报发布于2小时和42分钟前的12:00 UTC
预报有效从23日的 13点(UTC)到 24日的 01点(UTC)
风速4节,风向多变
能見度: 5000
少量云层高于6600英尺
散云层高于13000英尺
轻雾, 烟
短暂存在
从 23日的 22点(UTC)到 24日的 01点(UTC)
能見度: 3100
轻雾, 烟

TAF: UTDD 231200Z 2313/2401 VRB02MPS 5000 BR FU FEW066 SCT130 TEMPO 2322/2401 3100 BR FU

超过4000个机场的气象观测和天气预报(METAR&TAF报告)。

可查询的气象台以黄色和红色小点在地图上表示。

将鼠标移到小点上方,可查看气象台名称。

然后点击查看天气观测和预报。

如需切换地图:点击带黑十字的绿色按钮放大地图;点击带横线的绿色按钮缩小地图;或者点击绿色箭头查看邻近地区的地图。


METAR-TAF: